Bridgeport Valley, California Weather observations

Data are for 10 minute period ending at time listed.
 Day   Time   Solar   Ave.   Ave.  Ave.  Vector  Max.   Baro.   Total    
  of    of     Rad.   Air    Rel.  Wind   Wind   Wind  Press.  Precip.   
Year   Day            Temp.  Hum.  Speed  Dir.   Gust                    
2016   (PST)  Kw/m2    F      %     mph   deg.    mph    mb.     in.     
-------------------------------------------------------------------------
 120   12:30   1.05   57.1    28   13.9   267    22.1   798.4    0.00 
 120   12:40   0.89   57.0    28   16.0   266    24.0   798.4    0.00 
 120   12:50   0.83   56.4    30   13.4   266    21.9   798.5    0.00 
 120   13:00   0.62   55.9    30   12.8   280    23.3   798.4    0.00 
 120   13:10   0.81   55.9    31   11.0   281    20.9   798.4    0.00 
 120   13:20   1.01   56.7    30   13.5   276    24.5   798.4    0.00 
 120   13:30   1.08   57.2    29   17.2   272    28.9   798.3    0.00 
 120   13:40   1.03   56.7    30   19.1   279    31.4   798.1    0.00 
 120   13:50   0.99   56.9    30   18.3   268    32.2   798.2    0.00 
 120   14:00   0.95   56.3    30   17.4   274    28.0   798.0    0.00 
 120   14:10   0.89   56.6    31   18.5   271    25.7   797.9    0.00 
 120   14:20   0.96   56.3    32   18.8   261    25.5   797.7    0.00 
 120   14:30   0.81   56.1    30   18.0   262    26.3   797.6    0.00 
 120   14:40   0.59   55.0    32   14.3   269    23.7   797.4    0.00 
 120   14:50   0.36   54.1    33   13.7   276    20.3   797.6    0.00 
 120   15:00   0.42   53.7    34   12.4   283    21.5   797.5    0.00 
 120   15:10   0.52   53.8    34   13.6   293    18.9   797.3    0.00 
 120   15:20   0.42   54.1    31   16.7   284    25.6   797.3    0.00 
 120   15:30   0.82   54.8    32   16.3   285    28.5   797.2    0.00 
 120   15:40   0.40   54.0    32   16.2   268    24.5   797.2    0.00 
 120   15:50   0.31   52.7    36   15.0   269    25.6   797.1    0.00 
 120   16:00   0.17   51.7    36   13.7   276    26.2   797.1    0.00 
 120   16:10   0.16   51.3    36   13.8   269    20.4   797.0    0.00 
 120   16:20   0.22   51.3    37   11.8   277    16.3   797.0    0.00 
 120   16:30   0.21   51.7    36   14.0   270    22.6   796.9    0.00 
 120   16:40   0.48   52.1    39   18.3   259    24.4   796.9    0.00 
 120   16:50   0.21   50.3    41   13.7   263    20.3   796.9    0.00 
 120   17:00   0.23   49.8    42   11.0   274    17.1   796.8    0.00 
 120   17:10   0.08   49.4    42   12.3   285    19.0   796.8    0.00 
 120   17:20   0.05   48.1    43   11.8   274    19.1   796.8    0.00 
 120   17:30   0.20   48.7    44   13.8   263    21.5   796.7    0.00 
 120   17:40   0.20   49.5    41   11.2   285    20.5   796.5    0.00 
 120   17:50   0.16   49.5    39   10.4   282    17.5   796.3    0.00 
 120   18:00   0.12   48.8    37   13.8   273    20.2   796.3    0.00 
 120   18:10   0.05   48.3    37   11.6   268    20.0   796.4    0.00 
 120   18:20   0.05   45.6    55    4.7   222    11.0   796.5    0.00 
 120   18:30   0.02   43.1    62    4.0   280    10.6   796.5    0.00 
 120   18:40   0.01   43.1    54    5.2   346     9.1   796.4    0.00 
 120   18:50   0.01   40.9    55    3.5   304     6.4   796.4    0.00 
 120   19:00   0.00   39.1    61    5.1   325     7.9   796.4    0.00 
 120   19:10   0.00   38.3    60    6.6   350     9.6   796.6    0.00 
 120   19:20   0.00   38.8    58    7.6   330     9.6   796.7    0.00 
 120   19:30   0.00   39.7    57    8.0   328    11.8   796.8    0.00 
 120   19:40   0.00   40.6    56    8.5   333    15.8   796.8    0.00 
 120   19:50   0.00   41.8    53    8.0   328    13.1   796.9    0.00 
 120   20:00   0.00   40.6    55    6.8   328     9.2   797.1    0.00 
 120   20:10   0.00   39.7    63   10.1     6    17.5   797.3    0.00 
 120   20:20   0.00   38.6    75   15.9    36    23.1   797.3    0.00 
 120   20:30   0.00   37.5    79   14.6    34    22.1   797.4    0.00 
 120   20:40   0.00   37.2    80   16.1    39    23.6   797.4    0.00 
 120   20:50   0.00   37.0    81   17.0    33    22.9   797.5    0.00 
 120   21:00   0.00   36.8    82   18.7    30    26.7   797.6    0.00 
 120   21:10   0.00   36.6    83   17.2    10    28.3   797.8    0.00 
 120   21:20   0.00   34.6    88   12.4   341    21.2   798.1    0.01 
 120   21:30   0.00   34.1    92   12.1    23    18.1   798.1    0.00 
 120   21:40   0.00   33.4    93   11.6    26    14.7   798.1    0.01 
 120   21:50   0.00   32.6    94    8.6    36    12.8   798.1    0.00 
 120   22:00   0.00   32.4    95    5.9    61     7.7   798.1    0.00 
 120   22:10   0.00   32.4    95    4.7    54     6.6   798.1    0.00 
 120   22:20   0.00   32.5    95    3.6    48     5.8   798.1    0.00 
 120   22:30   0.00   32.5    95    1.9   320     4.5   798.1    0.00 
 120   22:40   0.00   32.5    95    4.3   226     5.7   798.0    0.00 
 120   22:50   0.00   32.5    96    3.2   208     5.3   797.9    0.00 
 120   23:00   0.00   32.3    96    2.7   234     3.7   797.8    0.00 
 120   23:10   0.00   32.1    96    1.6   216     2.6   797.8    0.00 
 120   23:20   0.00   32.1    96    0.5   223     1.2   797.8    0.00 
 120   23:30   0.00   32.0    96    1.5    64     2.9   797.8    0.00 
 120   23:40   0.00   31.9    96    4.0    54     6.9   797.9    0.00 
 120   23:50   0.00   32.1    96    8.6    36    16.0   797.9    0.00 
 121    0:00   0.00   31.9    96   13.4    34    18.5   798.1    0.00 
 121    0:10   0.00   32.1    95   15.9    35    21.0   798.1    0.00 
 121    0:20   0.00   32.1    94   14.9    26    20.0   798.2    0.00 
 121    0:30   0.00   32.1    92   10.3    33    15.1   798.2    0.00 
 121    0:40   0.00   32.1    91    7.0    30    12.5   798.2    0.00 
 121    0:50   0.00   32.2    91    4.8    33     6.6   798.2    0.00 
 121    1:00   0.00   32.2    91    4.3    32     7.2   798.1    0.00 
 121    1:10   0.00   32.2    91    3.9   358     5.8   798.0    0.00 
 121    1:20   0.00   32.0    92    3.7   226     5.0   798.1    0.00 
 121    1:30   0.00   32.1    92    0.9    48     2.6   798.1    0.00 
 121    1:40   0.00   32.0    92    0.8   285     2.4   798.0    0.00 
 121    1:50   0.00   31.9    93    0.0     0     0.0   798.0    0.00 
 121    2:00   0.00   31.7    94    0.0     0     0.0   797.9    0.00 
 121    2:10   0.00   31.6    94    0.0     0     0.0   798.0    0.00 
 121    2:20   0.00   31.6    95    0.0     0     0.0   798.0    0.00 
 121    2:30   0.00   31.6    95    0.0     0     0.0   798.0    0.00 
 121    2:40   0.00   31.5    95    0.0     0     0.0   798.0    0.00 
 121    2:50   0.00   31.4    96    0.0     0     0.0   798.2    0.00 
 121    3:00   0.00   31.4    96    0.0     0     0.0   798.2    0.00 
 121    3:10   0.00   31.5    96    1.3   328     5.2   798.2    0.00 
 121    3:20   0.00   32.0    95    3.9   352     9.2   798.2    0.01 
 121    3:30   0.00   32.6    91    5.4     0     8.2   798.3    0.00 
 121    3:40   0.00   32.5    90    4.0   354     6.4   798.5    0.00 
 121    3:50   0.00   32.6    90    4.9   356     7.9   798.6    0.00 
 121    4:00   0.00   32.5    90    5.7    19     9.6   798.5    0.00 
 121    4:10   0.00   32.3    90    6.8     9     9.9   798.5    0.00 
 121    4:20   0.00   32.1    91    4.9     8     7.7   798.5    0.00 
 121    4:30   0.00   32.0    91    1.3   341     3.4   798.6    0.00 
 121    4:40   0.00   31.6    92    2.9   184     4.2   798.5    0.00 
 121    4:50   0.00   31.2    92    3.2   196     6.0   798.3    0.00 
 121    5:00   0.00   31.1    90    3.2   165     4.6   798.3    0.00 
 121    5:10   0.00   30.7    91    4.4   125     6.3   798.2    0.00 
 121    5:20   0.01   31.5    90    4.2   114     6.9   798.4    0.00 
 121    5:30   0.01   32.3    86    3.6    61     6.6   798.5    0.00 
 121    5:40   0.01   32.5    84    3.0    73     4.6   798.5    0.00 
 121    5:50   0.02   32.4    86    1.4    54     4.0   798.8    0.00 
 121    6:00   0.02   32.4    87    1.4   221     3.4   798.8    0.00 
 121    6:10   0.04   32.5    88    2.5   190     3.5   799.0    0.00 
 121    6:20   0.05   32.4    89    2.9   161     4.5   799.1    0.00 
 121    6:30   0.04   32.5    90    5.6   151     7.8   799.1    0.00 
 121    6:40   0.06   32.6    90    4.2   147     7.3   799.2    0.00 
 121    6:50   0.03   32.8    88    3.8   118     5.7   799.3    0.00 
 121    7:00   0.07   32.9    88    4.5   122     6.5   799.4    0.00 
 121    7:10   0.10   33.2    87    2.4   122     4.5   799.5    0.00 
 121    7:20   0.07   33.6    85    1.4   117     3.5   799.6    0.01 
 121    7:30   0.09   34.1    84    0.6    47     1.8   799.8    0.01 
 121    7:40   0.14   34.5    82    0.1   357     1.3   799.8    0.02 
 121    7:50   0.24   35.1    81    0.4   185     2.3   799.9    0.02 
 121    8:00   0.19   35.0    82    2.0   183     4.0   800.0    0.02 
 121    8:10   0.19   34.7    83    3.7   169     5.8   800.0    0.00 
 121    8:20   0.22   34.6    84    4.9   156     7.2   800.0    0.00 
 121    8:30   0.20   34.5    85    4.0   133     6.1   800.0    0.00 
 121    8:40   0.17   34.5    85    3.2   122     6.1   800.0    0.00 
 121    8:50   0.16   34.3    85    2.1   102     4.0   800.0    0.01 
 121    9:00   0.17   34.2    86    2.8   102     5.6   799.9    0.00 
 121    9:10   0.13   34.0    89    3.1   145     4.7   800.1    0.00 
 121    9:20   0.11   34.2    90    4.1   164     6.1   800.1    0.00 
 121    9:30   0.14   34.3    90    4.1   178     5.3   800.1    0.00 
 121    9:40   0.14   34.4    90    4.9   203     7.2   800.1    0.00 
 121    9:50   0.19   34.9    89    4.6   150    10.1   800.2    0.00 
 121   10:00   0.29   36.5    89    8.0    13    13.4   800.3    0.00 
 121   10:10   0.25   37.1    86   10.4    19    14.8   800.3    0.00 
 121   10:20   0.48   38.4    87   12.6    26    17.5   800.3    0.00 
 121   10:30   0.47   38.9    85   12.3    22    19.0   800.4    0.00 
 121   10:40   0.25   38.3    84   11.8    19    16.0   800.5    0.00 
 121   10:50   0.30   37.9    82   10.7    15    15.1   800.6    0.00 
 121   11:00   0.34   38.1    82    8.9    20    13.0   800.7    0.00 
 121   11:10   0.40   37.9    83    7.8    11    13.4   800.6    0.00 
 121   11:20   0.28   38.1    80    8.3    36    12.1   800.6    0.00 
 121   11:30   0.22   37.6    80    6.5    34    11.6   800.7    0.00 
 121   11:40   0.38   38.1    80    8.8    28    15.6   800.7    0.00 
 121   11:50   0.96   39.8    80   10.4    31    14.9   800.6    0.00 
 121   12:00   1.20   41.3    79   12.0    33    17.4   800.6    0.00 
 121   12:10   0.99   41.8    76   12.4    24    18.8   800.6    0.00 
 121   12:20   0.92   42.1    75   12.9    30    22.8   800.7    0.00 

Return to Bridgeport Valley graphs page.


Western Regional Climate Center,wrcc@dri.edu